sensor_id;sensor_type;location;lat;lon;timestamp;pressure;altitude;pressure_sealevel;temperature;humidity
8292;BME280;4184;42.724;23.308;2022-08-18T00:02:13;95225.38;;;23.47;51.66
8292;BME280;4184;42.724;23.308;2022-08-18T00:04:42;95224.22;;;23.43;51.90
8292;BME280;4184;42.724;23.308;2022-08-18T00:07:13;95228.91;;;23.41;51.93
8292;BME280;4184;42.724;23.308;2022-08-18T00:09:41;95234.63;;;23.38;51.53
8292;BME280;4184;42.724;23.308;2022-08-18T00:12:13;95233.03;;;23.30;51.94
8292;BME280;4184;42.724;23.308;2022-08-18T00:14:42;95234.56;;;23.20;52.36
8292;BME280;4184;42.724;23.308;2022-08-18T00:17:10;95234.03;;;23.11;52.19
8292;BME280;4184;42.724;23.308;2022-08-18T00:19:37;95242.59;;;23.06;52.28
8292;BME280;4184;42.724;23.308;2022-08-18T00:22:05;95240.97;;;23.05;52.46
8292;BME280;4184;42.724;23.308;2022-08-18T00:24:33;95236.50;;;23.06;52.46
8292;BME280;4184;42.724;23.308;2022-08-18T00:27:00;95234.47;;;23.08;52.29
8292;BME280;4184;42.724;23.308;2022-08-18T00:29:28;95239.75;;;23.08;52.45
8292;BME280;4184;42.724;23.308;2022-08-18T00:31:57;95235.28;;;23.08;52.23
8292;BME280;4184;42.724;23.308;2022-08-18T00:34:25;95237.69;;;23.10;52.04
8292;BME280;4184;42.724;23.308;2022-08-18T00:36:52;95234.03;;;23.11;52.25
8292;BME280;4184;42.724;23.308;2022-08-18T00:39:20;95230.81;;;23.09;52.21
8292;BME280;4184;42.724;23.308;2022-08-18T00:41:47;95235.72;;;23.05;52.69
8292;BME280;4184;42.724;23.308;2022-08-18T00:44:14;95235.34;;;23.02;52.57
8292;BME280;4184;42.724;23.308;2022-08-18T00:46:42;95235.97;;;22.97;52.40
8292;BME280;4184;42.724;23.308;2022-08-18T00:49:11;95240.03;;;22.93;52.81
8292;BME280;4184;42.724;23.308;2022-08-18T00:51:44;95255.28;;;22.91;52.61
8292;BME280;4184;42.724;23.308;2022-08-18T00:54:16;95253.50;;;22.85;52.78
8292;BME280;4184;42.724;23.308;2022-08-18T00:56:47;95253.91;;;22.82;52.97
8292;BME280;4184;42.724;23.308;2022-08-18T00:59:19;95252.69;;;22.78;52.98
8292;BME280;4184;42.724;23.308;2022-08-18T01:01:51;95254.94;;;22.74;52.93
8292;BME280;4184;42.724;23.308;2022-08-18T01:04:24;95255.16;;;22.73;53.14
8292;BME280;4184;42.724;23.308;2022-08-18T01:06:56;95250.91;;;22.72;52.90
8292;BME280;4184;42.724;23.308;2022-08-18T01:09:25;95249.72;;;22.68;53.04
8292;BME280;4184;42.724;23.308;2022-08-18T01:11:53;95242.63;;;22.68;53.13
8292;BME280;4184;42.724;23.308;2022-08-18T01:14:21;95237.16;;;22.70;53.33
8292;BME280;4184;42.724;23.308;2022-08-18T01:16:49;95240.38;;;22.72;53.18
8292;BME280;4184;42.724;23.308;2022-08-18T01:19:48;95242.78;;;22.73;53.36
8292;BME280;4184;42.724;23.308;2022-08-18T01:22:56;95243.59;;;22.74;53.04
8292;BME280;4184;42.724;23.308;2022-08-18T01:25:26;95243.59;;;22.74;53.21
8292;BME280;4184;42.724;23.308;2022-08-18T01:28:10;95244.41;;;22.74;53.43
8292;BME280;4184;42.724;23.308;2022-08-18T01:30:51;95241.19;;;22.72;53.46
8292;BME280;4184;42.724;23.308;2022-08-18T01:33:24;95242.22;;;22.71;53.42
8292;BME280;4184;42.724;23.308;2022-08-18T01:35:54;95248.72;;;22.69;53.71
8292;BME280;4184;42.724;23.308;2022-08-18T01:38:24;95244.47;;;22.68;53.43
8292;BME280;4184;42.724;23.308;2022-08-18T01:40:52;95244.88;;;22.65;53.54
8292;BME280;4184;42.724;23.308;2022-08-18T01:43:20;95244.06;;;22.64;53.86
8292;BME280;4184;42.724;23.308;2022-08-18T01:45:48;95245.28;;;22.62;53.89
8292;BME280;4184;42.724;23.308;2022-08-18T01:48:16;95241.25;;;22.59;53.85
8292;BME280;4184;42.724;23.308;2022-08-18T01:50:43;95238.03;;;22.57;54.08
8292;BME280;4184;42.724;23.308;2022-08-18T01:53:13;95238.06;;;22.50;54.24
8292;BME280;4184;42.724;23.308;2022-08-18T01:55:43;95235.47;;;22.44;54.50
8292;BME280;4184;42.724;23.308;2022-08-18T01:58:11;95239.34;;;22.41;54.63
8292;BME280;4184;42.724;23.308;2022-08-18T02:00:39;95236.09;;;22.39;54.50
8292;BME280;4184;42.724;23.308;2022-08-18T02:03:10;95223.56;;;22.35;54.71
8292;BME280;4184;42.724;23.308;2022-08-18T02:05:41;95224.78;;;22.32;54.75
8292;BME280;4184;42.724;23.308;2022-08-18T02:08:10;95227.41;;;22.32;54.75
8292;BME280;4184;42.724;23.308;2022-08-18T02:10:39;95236.13;;;22.33;54.77
8292;BME280;4184;42.724;23.308;2022-08-18T02:13:08;95243.00;;;22.34;54.74
8292;BME280;4184;42.724;23.308;2022-08-18T02:15:36;95241.38;;;22.33;54.87
8292;BME280;4184;42.724;23.308;2022-08-18T02:18:04;95241.59;;;22.31;55.11
8292;BME280;4184;42.724;23.308;2022-08-18T02:20:31;95241.81;;;22.30;54.82
8292;BME280;4184;42.724;23.308;2022-08-18T02:22:58;95241.81;;;22.30;54.96
8292;BME280;4184;42.724;23.308;2022-08-18T02:25:28;95239.41;;;22.28;55.00
8292;BME280;4184;42.724;23.308;2022-08-18T02:27:56;95247.28;;;22.28;55.05
8292;BME280;4184;42.724;23.308;2022-08-18T02:30:25;95256.84;;;22.23;55.27
8292;BME280;4184;42.724;23.308;2022-08-18T02:32:52;95244.50;;;22.16;55.48
8292;BME280;4184;42.724;23.308;2022-08-18T02:35:21;95248.78;;;22.11;55.61
8292;BME280;4184;42.724;23.308;2022-08-18T02:37:49;95238.69;;;22.08;55.49
8292;BME280;4184;42.724;23.308;2022-08-18T02:40:17;95233.81;;;21.98;55.77
8292;BME280;4184;42.724;23.308;2022-08-18T02:42:45;95243.56;;;21.91;55.95
8292;BME280;4184;42.724;23.308;2022-08-18T02:45:14;95244.00;;;21.81;55.98
8292;BME280;4184;42.724;23.308;2022-08-18T02:47:43;95251.09;;;21.74;56.17
8292;BME280;4184;42.724;23.308;2022-08-18T02:50:11;95255.78;;;21.72;56.24
8292;BME280;4184;42.724;23.308;2022-08-18T02:52:39;95253.34;;;21.71;56.30
8292;BME280;4184;42.724;23.308;2022-08-18T02:55:07;95248.91;;;21.71;56.23
8292;BME280;4184;42.724;23.308;2022-08-18T02:57:35;95250.31;;;21.74;56.17
8292;BME280;4184;42.724;23.308;2022-08-18T03:00:04;95252.13;;;21.73;56.43
8292;BME280;4184;42.724;23.308;2022-08-18T03:02:32;95253.94;;;21.73;56.44
8292;BME280;4184;42.724;23.308;2022-08-18T03:05:01;95253.34;;;21.71;56.46
8292;BME280;4184;42.724;23.308;2022-08-18T03:07:28;95252.97;;;21.67;56.54
8292;BME280;4184;42.724;23.308;2022-08-18T03:09:56;95253.78;;;21.68;56.41
8292;BME280;4184;42.724;23.308;2022-08-18T03:12:23;95251.75;;;21.70;56.47
8292;BME280;4184;42.724;23.308;2022-08-18T03:14:51;95254.16;;;21.71;56.48
8292;BME280;4184;42.724;23.308;2022-08-18T03:17:18;95255.78;;;21.72;56.35
8292;BME280;4184;42.724;23.308;2022-08-18T03:19:46;95257.38;;;21.73;56.21
8292;BME280;4184;42.724;23.308;2022-08-18T03:22:15;95263.06;;;21.70;56.43
8292;BME280;4184;42.724;23.308;2022-08-18T03:24:42;95264.69;;;21.65;56.64
8292;BME280;4184;42.724;23.308;2022-08-18T03:27:10;95262.28;;;21.56;56.92
8292;BME280;4184;42.724;23.308;2022-08-18T03:29:38;95270.16;;;21.50;56.84
8292;BME280;4184;42.724;23.308;2022-08-18T03:32:06;95266.31;;;21.46;57.10
8292;BME280;4184;42.724;23.308;2022-08-18T03:34:34;95273.22;;;21.47;56.88
8292;BME280;4184;42.724;23.308;2022-08-18T03:37:02;95269.97;;;21.51;57.20
8292;BME280;4184;42.724;23.308;2022-08-18T03:39:31;95268.97;;;21.52;56.98
8292;BME280;4184;42.724;23.308;2022-08-18T03:41:58;95270.78;;;21.52;56.93
8292;BME280;4184;42.724;23.308;2022-08-18T03:44:27;95266.13;;;21.54;57.05
8292;BME280;4184;42.724;23.308;2022-08-18T03:46:55;95274.03;;;21.54;57.09
8292;BME280;4184;42.724;23.308;2022-08-18T03:49:23;95272.41;;;21.53;56.92
8292;BME280;4184;42.724;23.308;2022-08-18T03:51:52;95272.41;;;21.53;57.08
8292;BME280;4184;42.724;23.308;2022-08-18T03:54:19;95272.41;;;21.53;57.00
8292;BME280;4184;42.724;23.308;2022-08-18T03:56:49;95279.28;;;21.54;57.06
8292;BME280;4184;42.724;23.308;2022-08-18T03:59:19;95279.28;;;21.54;56.99
8292;BME280;4184;42.724;23.308;2022-08-18T04:01:49;95280.28;;;21.59;57.03
8292;BME280;4184;42.724;23.308;2022-08-18T04:04:20;95276.00;;;21.78;56.82
8292;BME280;4184;42.724;23.308;2022-08-18T04:06:51;95276.13;;;22.03;55.96
8292;BME280;4184;42.724;23.308;2022-08-18T04:09:21;95279.06;;;22.33;55.59
8292;BME280;4184;42.724;23.308;2022-08-18T04:11:51;95279.75;;;22.60;54.91
8292;BME280;4184;42.724;23.308;2022-08-18T04:14:20;95273.97;;;22.83;54.51
8292;BME280;4184;42.724;23.308;2022-08-18T04:16:50;95290.88;;;23.07;54.04
8292;BME280;4184;42.724;23.308;2022-08-18T04:19:18;95285.38;;;23.33;53.27
8292;BME280;4184;42.724;23.308;2022-08-18T04:21:45;95291.25;;;23.60;52.55
8292;BME280;4184;42.724;23.308;2022-08-18T04:24:17;95292.19;;;23.91;52.17
8292;BME280;4184;42.724;23.308;2022-08-18T04:26:46;95288.22;;;24.18;51.67
8292;BME280;4184;42.724;23.308;2022-08-18T04:29:17;95296.22;;;24.48;51.28
8292;BME280;4184;42.724;23.308;2022-08-18T04:31:45;95298.31;;;24.76;50.11
8292;BME280;4184;42.724;23.308;2022-08-18T04:34:13;95293.69;;;25.02;49.80
8292;BME280;4184;42.724;23.308;2022-08-18T04:36:41;95299.06;;;25.25;48.97
8292;BME280;4184;42.724;23.308;2022-08-18T04:39:11;95299.66;;;25.50;49.24
8292;BME280;4184;42.724;23.308;2022-08-18T04:41:40;95301.44;;;25.80;48.07
8292;BME280;4184;42.724;23.308;2022-08-18T04:44:10;95299.91;;;26.07;47.50
8292;BME280;4184;42.724;23.308;2022-08-18T04:46:41;95294.88;;;26.34;47.14
8292;BME280;4184;42.724;23.308;2022-08-18T04:49:10;95295.19;;;26.61;46.83
8292;BME280;4184;42.724;23.308;2022-08-18T04:51:41;95289.78;;;26.85;46.37
8292;BME280;4184;42.724;23.308;2022-08-18T04:54:09;95297.81;;;27.02;45.87
8292;BME280;4184;42.724;23.308;2022-08-18T04:56:38;95298.00;;;27.28;45.02
8292;BME280;4184;42.724;23.308;2022-08-18T04:59:08;95307.41;;;27.53;44.58
8292;BME280;4184;42.724;23.308;2022-08-18T05:01:39;95303.03;;;27.75;44.23
8292;BME280;4184;42.724;23.308;2022-08-18T05:04:07;95306.38;;;27.87;43.35
8292;BME280;4184;42.724;23.308;2022-08-18T05:06:35;95295.94;;;27.64;43.97
8292;BME280;4184;42.724;23.308;2022-08-18T05:09:05;95302.22;;;27.24;44.43
8292;BME280;4184;42.724;23.308;2022-08-18T05:11:34;95309.63;;;26.82;45.16
8292;BME280;4184;42.724;23.308;2022-08-18T05:14:03;95307.59;;;26.44;45.90
8292;BME280;4184;42.724;23.308;2022-08-18T05:16:31;95308.53;;;26.03;46.43
8292;BME280;4184;42.724;23.308;2022-08-18T05:19:03;95312.69;;;25.64;47.63
8292;BME280;4184;42.724;23.308;2022-08-18T05:21:31;95321.38;;;25.29;48.44
8292;BME280;4184;42.724;23.308;2022-08-18T05:23:59;95314.66;;;25.03;48.39
8292;BME280;4184;42.724;23.308;2022-08-18T05:26:27;95319.94;;;24.85;48.84
8292;BME280;4184;42.724;23.308;2022-08-18T05:28:54;95321.97;;;24.71;49.55
8292;BME280;4184;42.724;23.308;2022-08-18T05:31:23;95319.50;;;24.58;49.84
8292;BME280;4184;42.724;23.308;2022-08-18T05:33:52;95313.28;;;24.52;49.60
8292;BME280;4184;42.724;23.308;2022-08-18T05:36:45;95319.94;;;24.55;49.61
8292;BME280;4184;42.724;23.308;2022-08-18T05:39:23;95320.13;;;24.72;49.75
8292;BME280;4184;42.724;23.308;2022-08-18T05:41:54;95316.91;;;25.00;48.74
8292;BME280;4184;42.724;23.308;2022-08-18T05:44:26;95321.19;;;25.66;47.89
8292;BME280;4184;42.724;23.308;2022-08-18T05:46:56;95321.41;;;26.46;46.23
8292;BME280;4184;42.724;23.308;2022-08-18T05:49:26;95326.16;;;27.30;44.59
8292;BME280;4184;42.724;23.308;2022-08-18T05:51:58;95315.47;;;28.08;42.96
8292;BME280;4184;42.724;23.308;2022-08-18T05:54:44;95310.53;;;28.83;42.00
8292;BME280;4184;42.724;23.308;2022-08-18T05:57:37;95314.16;;;29.52;40.30
8292;BME280;4184;42.724;23.308;2022-08-18T06:00:07;95323.16;;;30.10;39.54
8292;BME280;4184;42.724;23.308;2022-08-18T06:02:40;95309.81;;;30.63;38.58
8292;BME280;4184;42.724;23.308;2022-08-18T06:05:13;95313.41;;;31.09;37.70
8292;BME280;4184;42.724;23.308;2022-08-18T06:07:52;95307.59;;;31.48;37.18
8292;BME280;4184;42.724;23.308;2022-08-18T06:10:21;95308.13;;;31.85;36.51
8292;BME280;4184;42.724;23.308;2022-08-18T06:12:50;95306.19;;;32.21;36.24
8292;BME280;4184;42.724;23.308;2022-08-18T06:15:22;95306.72;;;32.34;35.62
8292;BME280;4184;42.724;23.308;2022-08-18T06:20:54;95308.38;;;31.23;37.12
8292;BME280;4184;42.724;23.308;2022-08-18T06:23:33;95317.19;;;30.45;38.05
8292;BME280;4184;42.724;23.308;2022-08-18T06:26:09;95312.78;;;29.77;39.08
8292;BME280;4184;42.724;23.308;2022-08-18T06:28:52;95312.22;;;29.16;40.47
8292;BME280;4184;42.724;23.308;2022-08-18T06:31:27;95316.69;;;28.61;41.61
8292;BME280;4184;42.724;23.308;2022-08-18T06:34:05;95313.66;;;28.14;42.14
8292;BME280;4184;42.724;23.308;2022-08-18T06:36:42;95313.72;;;27.80;43.07
8292;BME280;4184;42.724;23.308;2022-08-18T06:39:21;95315.38;;;27.53;43.39
8292;BME280;4184;42.724;23.308;2022-08-18T06:41:52;95308.63;;;27.28;43.92
8292;BME280;4184;42.724;23.308;2022-08-18T06:44:24;95317.38;;;27.12;44.14
8292;BME280;4184;42.724;23.308;2022-08-18T06:46:57;95312.50;;;26.92;44.94
8292;BME280;4184;42.724;23.308;2022-08-18T06:49:37;95299.28;;;26.81;44.84
8292;BME280;4184;42.724;23.308;2022-08-18T06:52:20;95308.88;;;26.70;45.32
8292;BME280;4184;42.724;23.308;2022-08-18T06:54:49;95303.16;;;26.61;45.15
8292;BME280;4184;42.724;23.308;2022-08-18T06:57:27;95303.75;;;26.52;45.64
8292;BME280;4184;42.724;23.308;2022-08-18T06:59:57;95293.75;;;26.42;45.88
8292;BME280;4184;42.724;23.308;2022-08-18T07:02:41;95295.03;;;26.40;45.88
8292;BME280;4184;42.724;23.308;2022-08-18T07:05:23;95295.03;;;26.40;45.76
8292;BME280;4184;42.724;23.308;2022-08-18T07:08:09;95284.44;;;26.40;45.92
8292;BME280;4184;42.724;23.308;2022-08-18T07:10:42;95273.84;;;26.40;46.18
8292;BME280;4184;42.724;23.308;2022-08-18T07:13:23;95276.34;;;26.34;46.41
8292;BME280;4184;42.724;23.308;2022-08-18T07:15:52;95280.84;;;26.34;46.12
8292;BME280;4184;42.724;23.308;2022-08-18T07:18:26;95278.56;;;26.37;46.21
8292;BME280;4184;42.724;23.308;2022-08-18T07:20:56;95270.75;;;26.88;45.36
8292;BME280;4184;42.724;23.308;2022-08-18T07:23:27;95264.88;;;27.65;43.63
8292;BME280;4184;42.724;23.308;2022-08-18T07:26:06;95259.22;;;28.38;42.24
8292;BME280;4184;42.724;23.308;2022-08-18T07:28:37;95267.28;;;29.51;40.53
8292;BME280;4184;42.724;23.308;2022-08-18T07:31:21;95276.72;;;30.69;39.08
8292;BME280;4184;42.724;23.308;2022-08-18T07:33:56;95267.78;;;31.77;37.14
8292;BME280;4184;42.724;23.308;2022-08-18T07:36:28;95265.91;;;32.62;36.32
8292;BME280;4184;42.724;23.308;2022-08-18T07:39:02;95266.25;;;33.39;34.96
8292;BME280;4184;42.724;23.308;2022-08-18T07:41:40;95261.66;;;34.02;34.49
8292;BME280;4184;42.724;23.308;2022-08-18T07:44:14;95259.88;;;34.64;33.39
8292;BME280;4184;42.724;23.308;2022-08-18T07:46:51;95252.72;;;35.16;32.51
8292;BME280;4184;42.724;23.308;2022-08-18T07:49:23;95248.09;;;35.54;32.24
8292;BME280;4184;42.724;23.308;2022-08-18T07:51:55;95255.97;;;35.97;31.88
8292;BME280;4184;42.724;23.308;2022-08-18T07:54:36;95256.00;;;36.38;31.35
8292;BME280;4184;42.724;23.308;2022-08-18T07:57:14;95261.47;;;36.61;31.16
8292;BME280;4184;42.724;23.308;2022-08-18T07:59:50;95253.28;;;36.80;30.57
8292;BME280;4184;42.724;23.308;2022-08-18T08:02:31;95258.56;;;36.85;30.48
8292;BME280;4184;42.724;23.308;2022-08-18T08:05:06;95258.72;;;37.02;30.40
8292;BME280;4184;42.724;23.308;2022-08-18T08:07:43;95248.34;;;37.31;29.99
8292;BME280;4184;42.724;23.308;2022-08-18T08:10:24;95245.88;;;37.66;30.08
8292;BME280;4184;42.724;23.308;2022-08-18T08:13:04;95253.78;;;37.93;29.90
8292;BME280;4184;42.724;23.308;2022-08-18T08:15:42;95249.72;;;38.05;29.28
8292;BME280;4184;42.724;23.308;2022-08-18T08:18:20;95257.00;;;38.35;29.32
8292;BME280;4184;42.724;23.308;2022-08-18T08:20:55;95260.16;;;38.68;28.96
8292;BME280;4184;42.724;23.308;2022-08-18T08:23:29;95254.91;;;39.06;28.02
8292;BME280;4184;42.724;23.308;2022-08-18T08:26:26;95243.94;;;39.29;28.41
8292;BME280;4184;42.724;23.308;2022-08-18T08:29:11;95245.69;;;39.59;27.62
8292;BME280;4184;42.724;23.308;2022-08-18T08:31:46;95240.88;;;39.74;27.39
8292;BME280;4184;42.724;23.308;2022-08-18T08:34:19;95242.31;;;39.71;27.47
8292;BME280;4184;42.724;23.308;2022-08-18T08:36:56;95234.75;;;39.94;27.22
8292;BME280;4184;42.724;23.308;2022-08-18T08:39:34;95235.38;;;40.08;26.80
8292;BME280;4184;42.724;23.308;2022-08-18T08:42:08;95230.06;;;40.20;26.86
8292;BME280;4184;42.724;23.308;2022-08-18T08:44:44;95235.41;;;40.29;26.49
8292;BME280;4184;42.724;23.308;2022-08-18T08:47:18;95232.84;;;40.41;26.35
8292;BME280;4184;42.724;23.308;2022-08-18T08:49:51;95230.09;;;40.50;26.17
8292;BME280;4184;42.724;23.308;2022-08-18T08:52:23;95231.41;;;40.65;25.74
8292;BME280;4184;42.724;23.308;2022-08-18T08:54:55;95232.03;;;40.70;25.79
8292;BME280;4184;42.724;23.308;2022-08-18T08:57:29;95237.00;;;40.68;25.97
8292;BME280;4184;42.724;23.308;2022-08-18T09:00:03;95231.16;;;40.78;25.42
8292;BME280;4184;42.724;23.308;2022-08-18T09:02:45;95234.91;;;40.95;25.26
8292;BME280;4184;42.724;23.308;2022-08-18T09:05:17;95231.81;;;41.05;25.25
8292;BME280;4184;42.724;23.308;2022-08-18T09:08:04;95221.41;;;41.07;25.25
8292;BME280;4184;42.724;23.308;2022-08-18T09:14:02;95219.59;;;41.11;25.08
8292;BME280;4184;42.724;23.308;2022-08-18T09:16:43;95214.97;;;41.11;25.09
8292;BME280;4184;42.724;23.308;2022-08-18T09:19:43;95206.66;;;41.16;24.99
8292;BME280;4184;42.724;23.308;2022-08-18T09:22:23;95203.94;;;41.16;24.98
8292;BME280;4184;42.724;23.308;2022-08-18T09:24:55;95201.03;;;41.01;24.75
8292;BME280;4184;42.724;23.308;2022-08-18T09:27:37;95196.69;;;40.87;24.94
8292;BME280;4184;42.724;23.308;2022-08-18T09:33:09;95195.75;;;40.83;24.98
8292;BME280;4184;42.724;23.308;2022-08-18T09:38:30;95191.50;;;40.74;24.93
8292;BME280;4184;42.724;23.308;2022-08-18T09:41:19;95182.22;;;40.54;25.39
8292;BME280;4184;42.724;23.308;2022-08-18T09:44:03;95177.56;;;40.34;25.06
8292;BME280;4184;42.724;23.308;2022-08-18T09:46:55;95182.88;;;40.21;25.14
8292;BME280;4184;42.724;23.308;2022-08-18T09:49:45;95181.38;;;40.33;24.91
8292;BME280;4184;42.724;23.308;2022-08-18T09:55:53;95168.56;;;40.12;25.32
8292;BME280;4184;42.724;23.308;2022-08-18T09:58:53;95166.78;;;39.87;25.29
8292;BME280;4184;42.724;23.308;2022-08-18T10:01:37;95155.91;;;39.57;25.69
8292;BME280;4184;42.724;23.308;2022-08-18T10:04:31;95153.38;;;39.52;25.56
8292;BME280;4184;42.724;23.308;2022-08-18T10:07:27;95151.22;;;39.20;25.53
8292;BME280;4184;42.724;23.308;2022-08-18T10:10:17;95159.50;;;38.89;25.65
8292;BME280;4184;42.724;23.308;2022-08-18T10:13:00;95154.19;;;38.32;26.46
8292;BME280;4184;42.724;23.308;2022-08-18T10:15:41;95156.06;;;37.74;26.48
8292;BME280;4184;42.724;23.308;2022-08-18T10:21:16;95149.78;;;36.31;28.44
8292;BME280;4184;42.724;23.308;2022-08-18T10:23:55;95148.03;;;35.85;28.70
8292;BME280;4184;42.724;23.308;2022-08-18T10:29:54;95150.63;;;34.97;29.83
8292;BME280;4184;42.724;23.308;2022-08-18T10:32:37;95151.97;;;34.62;30.10
8292;BME280;4184;42.724;23.308;2022-08-18T10:38:42;95135.66;;;34.16;30.81
8292;BME280;4184;42.724;23.308;2022-08-18T10:41:26;95144.41;;;34.03;31.21
8292;BME280;4184;42.724;23.308;2022-08-18T10:43:55;95142.94;;;33.92;31.01
8292;BME280;4184;42.724;23.308;2022-08-18T10:46:27;95138.25;;;33.78;31.53
8292;BME280;4184;42.724;23.308;2022-08-18T10:49:06;95132.41;;;33.71;31.15
8292;BME280;4184;42.724;23.308;2022-08-18T10:58:17;95145.16;;;33.32;31.67
8292;BME280;4184;42.724;23.308;2022-08-18T11:01:06;95133.50;;;33.17;32.00
8292;BME280;4184;42.724;23.308;2022-08-18T11:03:54;95123.34;;;33.14;31.55
8292;BME280;4184;42.724;23.308;2022-08-18T11:06:26;95125.75;;;33.16;32.17
8292;BME280;4184;42.724;23.308;2022-08-18T11:08:56;95120.59;;;33.19;31.56
8292;BME280;4184;42.724;23.308;2022-08-18T11:11:28;95111.47;;;33.20;31.83
8292;BME280;4184;42.724;23.308;2022-08-18T11:14:03;95102.38;;;33.21;31.42
8292;BME280;4184;42.724;23.308;2022-08-18T11:16:43;95122.72;;;33.22;31.06
8292;BME280;4184;42.724;23.308;2022-08-18T11:19:15;95115.25;;;33.19;31.58
8292;BME280;4184;42.724;23.308;2022-08-18T11:21:46;95109.66;;;33.16;31.84
8292;BME280;4184;42.724;23.308;2022-08-18T11:24:17;95123.91;;;33.11;31.40
8292;BME280;4184;42.724;23.308;2022-08-18T11:26:48;95114.78;;;33.12;31.33
8292;BME280;4184;42.724;23.308;2022-08-18T11:29:29;95113.72;;;33.13;31.26
8292;BME280;4184;42.724;23.308;2022-08-18T11:32:01;95111.25;;;33.17;31.59
8292;BME280;4184;42.724;23.308;2022-08-18T11:34:33;95110.19;;;33.18;31.02
8292;BME280;4184;42.724;23.308;2022-08-18T11:37:05;95104.59;;;33.14;31.84
8292;BME280;4184;42.724;23.308;2022-08-18T11:39:40;95107.28;;;33.14;31.44
8292;BME280;4184;42.724;23.308;2022-08-18T11:42:08;95106.75;;;33.12;31.04
8292;BME280;4184;42.724;23.308;2022-08-18T11:44:38;95104.59;;;33.14;31.00
8292;BME280;4184;42.724;23.308;2022-08-18T11:47:12;95091.19;;;33.14;30.69
8292;BME280;4184;42.724;23.308;2022-08-18T11:49:54;95105.09;;;33.16;31.43
8292;BME280;4184;42.724;23.308;2022-08-18T11:52:25;95097.34;;;33.15;31.33
8292;BME280;4184;42.724;23.308;2022-08-18T11:54:59;95101.13;;;33.14;31.53
8292;BME280;4184;42.724;23.308;2022-08-18T11:57:38;95093.88;;;33.14;31.32
8292;BME280;4184;42.724;23.308;2022-08-18T12:00:37;95082.88;;;33.16;31.54
8292;BME280;4184;42.724;23.308;2022-08-18T12:03:09;95084.69;;;33.20;31.40
8292;BME280;4184;42.724;23.308;2022-08-18T12:05:45;95087.88;;;33.22;30.66
8292;BME280;4184;42.724;23.308;2022-08-18T12:08:24;95085.03;;;33.14;31.18
8292;BME280;4184;42.724;23.308;2022-08-18T12:11:06;95066.56;;;33.12;30.63
8292;BME280;4184;42.724;23.308;2022-08-18T12:13:43;95075.69;;;33.11;31.21
8292;BME280;4184;42.724;23.308;2022-08-18T12:16:16;95072.50;;;33.09;30.50
8292;BME280;4184;42.724;23.308;2022-08-18T12:18:57;95069.28;;;33.07;31.08
8292;BME280;4184;42.724;23.308;2022-08-18T12:21:24;95069.84;;;33.04;30.97
8292;BME280;4184;42.724;23.308;2022-08-18T12:23:52;95068.31;;;32.98;30.80
8292;BME280;4184;42.724;23.308;2022-08-18T12:26:19;95069.16;;;32.94;30.73
8292;BME280;4184;42.724;23.308;2022-08-18T12:28:47;95063.56;;;32.90;30.79
8292;BME280;4184;42.724;23.308;2022-08-18T12:31:16;95065.44;;;32.89;31.42
8292;BME280;4184;42.724;23.308;2022-08-18T12:33:44;95064.34;;;32.90;31.03
8292;BME280;4184;42.724;23.308;2022-08-18T12:36:11;95063.56;;;32.90;31.00
8292;BME280;4184;42.724;23.308;2022-08-18T12:38:41;95061.97;;;32.89;31.56
8292;BME280;4184;42.724;23.308;2022-08-18T12:41:09;95057.41;;;32.89;31.14
8292;BME280;4184;42.724;23.308;2022-08-18T12:43:40;95059.56;;;32.87;31.37
8292;BME280;4184;42.724;23.308;2022-08-18T12:46:08;95064.13;;;32.87;30.99
8292;BME280;4184;42.724;23.308;2022-08-18T12:48:37;95065.22;;;32.86;31.58
8292;BME280;4184;42.724;23.308;2022-08-18T12:51:06;95063.31;;;32.86;31.77
8292;BME280;4184;42.724;23.308;2022-08-18T12:53:34;95071.06;;;32.88;31.38
8292;BME280;4184;42.724;23.308;2022-08-18T12:56:01;95057.16;;;32.86;31.30
8292;BME280;4184;42.724;23.308;2022-08-18T12:58:29;95062.28;;;32.82;31.32
8292;BME280;4184;42.724;23.308;2022-08-18T13:00:57;95059.34;;;32.79;31.07
8292;BME280;4184;42.724;23.308;2022-08-18T13:03:24;95063.13;;;32.73;31.49
8292;BME280;4184;42.724;23.308;2022-08-18T13:05:53;95056.25;;;32.67;31.82
8292;BME280;4184;42.724;23.308;2022-08-18T13:08:21;95054.13;;;32.64;31.99
8292;BME280;4184;42.724;23.308;2022-08-18T13:10:49;95050.94;;;32.61;31.77
8292;BME280;4184;42.724;23.308;2022-08-18T13:13:18;95046.66;;;32.60;31.29
8292;BME280;4184;42.724;23.308;2022-08-18T13:15:47;95044.00;;;32.60;31.76
8292;BME280;4184;42.724;23.308;2022-08-18T13:18:15;95041.31;;;32.60;31.40
8292;BME280;4184;42.724;23.308;2022-08-18T13:20:42;95043.44;;;32.58;31.40
8292;BME280;4184;42.724;23.308;2022-08-18T13:23:11;95032.19;;;32.61;31.23
8292;BME280;4184;42.724;23.308;2022-08-18T13:25:39;95028.16;;;32.64;31.82
8292;BME280;4184;42.724;23.308;2022-08-18T13:28:07;95028.38;;;32.68;31.31
8292;BME280;4184;42.724;23.308;2022-08-18T13:30:35;95035.34;;;32.69;31.68
8292;BME280;4184;42.724;23.308;2022-08-18T13:33:03;95033.75;;;32.68;31.11
8292;BME280;4184;42.724;23.308;2022-08-18T13:35:30;95034.25;;;32.70;31.54
8292;BME280;4184;42.724;23.308;2022-08-18T13:37:58;95032.16;;;32.67;31.31
8292;BME280;4184;42.724;23.308;2022-08-18T13:40:27;95028.16;;;32.64;31.34
8292;BME280;4184;42.724;23.308;2022-08-18T13:42:54;95017.44;;;32.64;31.27
8292;BME280;4184;42.724;23.308;2022-08-18T13:45:22;95026.28;;;32.65;31.05
8292;BME280;4184;42.724;23.308;2022-08-18T13:47:51;95028.97;;;32.65;31.63
8292;BME280;4184;42.724;23.308;2022-08-18T13:50:20;95027.88;;;32.66;31.43
8292;BME280;4184;42.724;23.308;2022-08-18T13:52:48;95026.75;;;32.72;31.32
8292;BME280;4184;42.724;23.308;2022-08-18T13:55:17;95028.22;;;32.88;31.13
8292;BME280;4184;42.724;23.308;2022-08-18T13:57:46;95019.47;;;33.06;30.98
8292;BME280;4184;42.724;23.308;2022-08-18T14:00:16;95015.69;;;33.07;31.36
8292;BME280;4184;42.724;23.308;2022-08-18T14:02:45;95009.88;;;33.00;31.35
8292;BME280;4184;42.724;23.308;2022-08-18T14:05:15;95014.00;;;32.93;31.57
8292;BME280;4184;42.724;23.308;2022-08-18T14:07:43;95015.41;;;32.85;31.52
8292;BME280;4184;42.724;23.308;2022-08-18T14:10:11;95018.38;;;32.83;31.31
8292;BME280;4184;42.724;23.308;2022-08-18T14:12:40;95023.22;;;32.81;31.28